createdAt,value
2022-09-24T00:00:23.660Z,8.97
2022-09-24T00:02:45.121Z,5.43
2022-09-24T00:05:06.983Z,6.03
2022-09-24T00:07:28.409Z,5.47
2022-09-24T00:09:49.827Z,5.37
2022-09-24T00:12:13.167Z,5.77
2022-09-24T00:14:34.727Z,6.77
2022-09-24T00:16:56.141Z,5.60
2022-09-24T00:19:17.626Z,5.10
2022-09-24T00:21:40.248Z,6.87
2022-09-24T00:24:04.887Z,6.10
2022-09-24T00:26:45.207Z,5.80
2022-09-24T00:29:08.866Z,5.73
2022-09-24T00:31:31.171Z,6.93
2022-09-24T00:33:53.470Z,5.93
2022-09-24T00:36:15.635Z,5.50
2022-09-24T00:38:37.100Z,8.03
2022-09-24T00:40:59.748Z,7.40
2022-09-24T00:43:23.743Z,4.93
2022-09-24T00:45:45.164Z,8.27
2022-09-24T00:48:08.457Z,7.37
2022-09-24T00:50:34.984Z,6.60
2022-09-24T00:53:01.696Z,10.53
2022-09-24T00:55:24.627Z,4.90
2022-09-24T00:57:48.696Z,5.87
2022-09-24T01:00:11.056Z,7.97
2022-09-24T01:02:35.434Z,4.90
2022-09-24T01:04:57.403Z,6.53
2022-09-24T01:07:18.827Z,7.73
2022-09-24T01:09:40.380Z,7.80
2022-09-24T01:12:28.517Z,6.70
2022-09-24T01:15:06.911Z,6.73
2022-09-24T01:17:40.178Z,5.33
2022-09-24T01:20:33.050Z,6.80
2022-09-24T01:23:17.116Z,5.67
2022-09-24T01:26:01.305Z,5.43
2022-09-24T01:28:38.094Z,5.17
2022-09-24T01:31:08.683Z,5.63
2022-09-24T01:33:34.049Z,6.03
2022-09-24T01:36:00.674Z,4.87
2022-09-24T01:38:28.707Z,9.60
2022-09-24T01:40:51.962Z,6.77
2022-09-24T01:43:15.996Z,4.90
2022-09-24T01:45:39.445Z,6.40
2022-09-24T01:48:01.855Z,5.70
2022-09-24T01:50:25.086Z,6.13
2022-09-24T01:52:55.950Z,5.17
2022-09-24T01:55:21.733Z,4.50
2022-09-24T01:57:48.759Z,5.70
2022-09-24T02:00:21.841Z,4.70
2022-09-24T02:02:53.383Z,7.67
2022-09-24T02:05:21.974Z,6.53
2022-09-24T02:08:05.019Z,5.87
2022-09-24T02:10:30.649Z,6.43
2022-09-24T02:13:01.655Z,6.10
2022-09-24T02:15:33.058Z,7.97
2022-09-24T02:17:58.018Z,5.57
2022-09-24T02:20:21.925Z,5.53
2022-09-24T02:22:44.468Z,5.27
2022-09-24T02:25:10.477Z,4.60
2022-09-24T02:27:31.995Z,4.93
2022-09-24T02:29:53.427Z,6.27
2022-09-24T02:32:19.866Z,6.10
2022-09-24T02:34:50.014Z,6.10
2022-09-24T02:37:13.122Z,6.33
2022-09-24T02:39:35.029Z,8.00
2022-09-24T02:41:58.209Z,7.33
2022-09-24T02:44:20.493Z,8.23
2022-09-24T02:46:42.971Z,7.00
2022-09-24T02:49:04.526Z,5.30
2022-09-24T02:51:26.450Z,5.07
2022-09-24T02:53:47.892Z,7.73
2022-09-24T02:56:09.421Z,6.63
2022-09-24T02:58:30.964Z,7.37
2022-09-24T03:00:53.671Z,4.77
2022-09-24T03:03:15.277Z,6.07
2022-09-24T03:05:36.783Z,5.53
2022-09-24T03:07:58.848Z,6.43
2022-09-24T03:10:20.317Z,6.57
2022-09-24T03:12:43.699Z,5.37
2022-09-24T03:15:05.685Z,8.60
2022-09-24T03:17:28.362Z,7.27
2022-09-24T03:19:49.838Z,5.73
2022-09-24T03:22:11.241Z,4.97
2022-09-24T03:24:32.683Z,5.50
2022-09-24T03:26:54.168Z,6.00
2022-09-24T03:29:15.610Z,5.03
2022-09-24T03:31:37.116Z,6.33
2022-09-24T03:33:59.317Z,6.40
2022-09-24T03:36:23.176Z,7.00
2022-09-24T03:38:46.177Z,7.13
2022-09-24T03:41:08.909Z,6.23
2022-09-24T03:43:31.366Z,5.97
2022-09-24T03:45:53.462Z,5.13
2022-09-24T03:48:16.202Z,6.03
2022-09-24T03:50:38.389Z,5.30
2022-09-24T03:52:59.810Z,5.77
2022-09-24T03:55:21.225Z,5.63
2022-09-24T03:57:42.670Z,5.50
2022-09-24T04:00:04.875Z,6.30
2022-09-24T04:02:26.391Z,7.33
2022-09-24T04:04:47.937Z,7.33
2022-09-24T04:07:09.378Z,10.40
2022-09-24T04:09:31.021Z,15.93
2022-09-24T04:11:53.236Z,11.20
2022-09-24T04:14:15.333Z,14.03
2022-09-24T04:16:36.809Z,12.33
2022-09-24T04:18:58.254Z,9.17
2022-09-24T04:21:19.694Z,5.73
2022-09-24T04:23:41.125Z,6.73
2022-09-24T04:26:02.591Z,5.80
2022-09-24T04:28:25.260Z,7.87
2022-09-24T04:30:46.669Z,7.10
2022-09-24T04:33:08.514Z,6.40
2022-09-24T04:35:32.135Z,6.33
2022-09-24T04:37:53.706Z,5.77
2022-09-24T04:40:16.257Z,9.83
2022-09-24T04:42:39.252Z,8.33
2022-09-24T04:45:01.060Z,8.93
2022-09-24T04:47:24.300Z,9.17
2022-09-24T04:49:45.900Z,6.53
2022-09-24T04:52:07.337Z,6.40
2022-09-24T04:54:29.668Z,6.87
2022-09-24T04:56:51.094Z,8.37
2022-09-24T04:59:12.493Z,6.47
2022-09-24T05:01:34.197Z,7.43
2022-09-24T05:03:56.166Z,5.93
2022-09-24T05:06:17.579Z,5.90
2022-09-24T05:08:39.027Z,7.10
2022-09-24T05:11:02.377Z,7.07
2022-09-24T05:13:23.877Z,6.20
2022-09-24T05:15:45.355Z,7.20
2022-09-24T05:18:06.833Z,6.83
2022-09-24T05:20:28.455Z,6.57
2022-09-24T05:22:50.696Z,6.90
2022-09-24T05:25:13.522Z,8.80
2022-09-24T05:27:35.885Z,12.50
2022-09-24T05:29:57.303Z,9.67
2022-09-24T05:32:20.158Z,11.07
2022-09-24T05:34:43.289Z,12.23
2022-09-24T05:37:05.067Z,6.50
2022-09-24T05:39:30.117Z,5.90
2022-09-24T05:41:56.291Z,7.30
2022-09-24T05:44:20.736Z,9.47
2022-09-24T05:46:42.237Z,7.57
2022-09-24T05:49:03.747Z,10.87
2022-09-24T05:51:25.521Z,20.20
2022-09-24T05:53:47.047Z,18.30
2022-09-24T05:56:10.295Z,20.33
2022-09-24T05:58:32.086Z,11.90
2022-09-24T06:00:53.642Z,13.27
2022-09-24T06:03:17.076Z,10.97
2022-09-24T06:05:38.611Z,15.37
2022-09-24T06:08:00.171Z,14.07
2022-09-24T06:10:21.665Z,14.50
2022-09-24T06:12:43.135Z,16.60
2022-09-24T06:15:04.969Z,12.93
2022-09-24T06:17:26.838Z,7.80
2022-09-24T06:19:48.351Z,9.47
2022-09-24T06:22:09.837Z,6.70
2022-09-24T06:24:31.275Z,6.83
2022-09-24T06:26:52.706Z,6.53
2022-09-24T06:29:15.142Z,10.83
2022-09-24T06:31:36.670Z,7.00
2022-09-24T06:33:58.144Z,8.07
2022-09-24T06:36:19.587Z,6.60
2022-09-24T06:38:41.274Z,6.60
2022-09-24T06:41:05.241Z,6.57
2022-09-24T06:43:26.932Z,7.30
2022-09-24T06:45:48.501Z,6.07
2022-09-24T06:48:14.928Z,6.17
2022-09-24T06:50:40.695Z,9.70
2022-09-24T06:53:05.420Z,7.17
2022-09-24T06:55:27.387Z,5.60
2022-09-24T06:57:49.105Z,9.93
2022-09-24T07:00:11.375Z,5.90
2022-09-24T07:02:32.897Z,7.33
2022-09-24T07:04:54.362Z,8.30
2022-09-24T07:07:32.833Z,6.70
2022-09-24T07:09:54.434Z,7.17
2022-09-24T07:12:15.864Z,7.33
2022-09-24T07:14:37.278Z,5.70
2022-09-24T07:16:58.691Z,12.60
2022-09-24T07:19:20.109Z,7.37
2022-09-24T07:21:41.578Z,7.93
2022-09-24T07:24:03.232Z,6.17
2022-09-24T07:26:24.738Z,6.53
2022-09-24T07:28:46.174Z,7.20
2022-09-24T07:31:08.760Z,5.40
2022-09-24T07:33:31.699Z,6.07
2022-09-24T07:35:53.140Z,5.63
2022-09-24T07:38:15.591Z,6.27
2022-09-24T07:40:37.091Z,10.70
2022-09-24T07:43:00.065Z,7.63
2022-09-24T07:45:23.291Z,7.23
2022-09-24T07:47:44.752Z,10.33
2022-09-24T07:50:06.355Z,6.90
2022-09-24T07:52:27.780Z,5.93
2022-09-24T07:54:49.836Z,7.50
2022-09-24T07:57:15.180Z,6.20
2022-09-24T07:59:36.603Z,5.70
2022-09-24T08:01:59.154Z,6.73
2022-09-24T08:04:20.795Z,5.40
2022-09-24T08:06:47.218Z,6.13
2022-09-24T08:09:09.371Z,6.73
2022-09-24T08:11:31.211Z,8.77
2022-09-24T08:13:52.625Z,5.83
2022-09-24T08:16:16.409Z,6.33
2022-09-24T08:18:37.881Z,7.23
2022-09-24T08:21:04.633Z,5.80
2022-09-24T08:23:26.080Z,5.93
2022-09-24T08:25:47.943Z,6.37
2022-09-24T08:28:12.124Z,5.47
2022-09-24T08:30:34.787Z,5.73
2022-09-24T08:32:56.235Z,4.77
2022-09-24T08:35:17.699Z,8.13
2022-09-24T08:37:39.179Z,17.43
2022-09-24T08:40:01.183Z,5.70
2022-09-24T08:42:44.933Z,5.50
2022-09-24T08:45:27.389Z,7.37
2022-09-24T08:48:10.052Z,4.80
2022-09-24T08:50:34.976Z,6.37
2022-09-24T08:53:06.738Z,5.40
2022-09-24T08:55:36.232Z,5.97
2022-09-24T08:58:17.472Z,8.40
2022-09-24T09:00:58.954Z,9.27
2022-09-24T09:03:40.587Z,7.37
2022-09-24T09:06:12.391Z,6.23
2022-09-24T09:09:06.320Z,6.07
2022-09-24T09:11:32.659Z,5.43
2022-09-24T09:14:03.982Z,5.10
2022-09-24T09:16:29.582Z,6.50
2022-09-24T09:18:55.896Z,5.90
2022-09-24T09:21:36.947Z,7.47
2022-09-24T09:24:01.182Z,5.35
2022-09-24T09:26:23.018Z,5.40
2022-09-24T09:28:46.259Z,6.03
2022-09-24T09:31:32.347Z,7.45
2022-09-24T09:34:12.098Z,9.38
2022-09-24T09:36:47.961Z,6.03
2022-09-24T09:39:33.153Z,5.82
2022-09-24T09:42:04.819Z,8.20
2022-09-24T09:44:30.453Z,6.47
2022-09-24T09:46:58.610Z,7.93
2022-09-24T09:49:20.660Z,5.65
2022-09-24T09:51:44.192Z,6.25
2022-09-24T09:54:05.808Z,7.10
2022-09-24T09:56:44.468Z,6.93
2022-09-24T09:59:16.565Z,6.88
2022-09-24T10:01:41.416Z,6.35
2022-09-24T10:04:04.659Z,5.90
2022-09-24T10:06:29.093Z,9.23
2022-09-24T10:08:50.597Z,7.10
2022-09-24T10:11:15.920Z,4.40
2022-09-24T10:13:37.350Z,4.63
2022-09-24T10:16:01.997Z,4.55
2022-09-24T10:18:29.612Z,4.35
2022-09-24T10:20:51.921Z,5.97
2022-09-24T10:23:21.074Z,6.45
2022-09-24T10:25:51.515Z,4.80
2022-09-24T10:28:38.503Z,4.53
2022-09-24T10:31:05.027Z,6.35
2022-09-24T10:33:35.328Z,7.00
2022-09-24T10:36:13.896Z,7.72
2022-09-24T10:38:35.346Z,8.23
2022-09-24T10:40:57.096Z,5.38
2022-09-24T10:43:21.329Z,7.47
2022-09-24T10:46:08.771Z,7.15
2022-09-24T10:48:39.213Z,7.25
2022-09-24T10:51:06.065Z,5.78
2022-09-24T10:53:53.383Z,6.85
2022-09-24T10:56:40.927Z,6.15
2022-09-24T10:59:34.820Z,3.55
2022-09-24T11:02:20.325Z,3.22
2022-09-24T11:04:58.719Z,5.40
2022-09-24T11:07:28.984Z,4.40
2022-09-24T11:09:56.274Z,4.57
2022-09-24T11:12:45.293Z,4.60
2022-09-24T11:15:25.803Z,5.70
2022-09-24T11:18:16.156Z,8.00
2022-09-24T11:20:39.502Z,9.00
2022-09-24T11:23:31.080Z,4.10
2022-09-24T11:26:11.960Z,3.55
2022-09-24T11:28:50.682Z,4.53
2022-09-24T11:31:30.706Z,5.13
2022-09-24T11:34:04.252Z,5.90
2022-09-24T11:36:50.562Z,4.53
2022-09-24T11:39:26.669Z,6.55
2022-09-24T11:42:32.782Z,8.73
2022-09-24T11:44:56.919Z,9.27
2022-09-24T11:47:45.134Z,4.40
2022-09-24T11:50:20.085Z,4.80
2022-09-24T11:52:48.011Z,3.42
2022-09-24T11:55:23.699Z,8.70
2022-09-24T11:57:53.169Z,3.95
2022-09-24T12:00:20.237Z,4.45
2022-09-24T12:02:48.675Z,4.28
2022-09-24T12:05:23.239Z,6.88
2022-09-24T12:07:58.584Z,7.22
2022-09-24T12:10:32.342Z,7.30
2022-09-24T12:13:07.034Z,4.88
2022-09-24T12:15:39.850Z,4.93
2022-09-24T12:18:08.947Z,5.35
2022-09-24T12:20:32.741Z,7.25
2022-09-24T12:23:09.401Z,3.63
2022-09-24T12:25:46.314Z,37.30
2022-09-24T12:28:38.072Z,4.75
2022-09-24T12:31:23.533Z,5.22
2022-09-24T12:33:55.345Z,6.55
2022-09-24T12:36:29.198Z,4.72
2022-09-24T12:38:57.002Z,5.63
2022-09-24T12:41:27.495Z,3.88
2022-09-24T12:43:51.877Z,3.08
2022-09-24T12:46:42.914Z,3.38
2022-09-24T12:49:04.768Z,3.20
2022-09-24T12:51:35.776Z,3.25
2022-09-24T12:54:00.509Z,5.82
2022-09-24T12:56:30.752Z,4.43
2022-09-24T12:58:53.338Z,6.22
2022-09-24T13:01:20.697Z,5.72
2022-09-24T13:03:46.967Z,3.90
2022-09-24T13:06:34.757Z,5.97
2022-09-24T13:08:56.210Z,3.15
2022-09-24T13:11:44.033Z,4.68
2022-09-24T13:14:18.267Z,2.90
2022-09-24T13:16:41.969Z,3.65
2022-09-24T13:19:06.079Z,2.40
2022-09-24T13:21:29.821Z,3.10
2022-09-24T13:23:51.997Z,2.47
2022-09-24T13:26:30.076Z,3.20
2022-09-24T13:28:56.525Z,3.70
2022-09-24T13:31:22.815Z,2.58
2022-09-24T13:33:48.109Z,4.10
2022-09-24T13:36:17.481Z,2.92
2022-09-24T13:38:52.936Z,2.80
2022-09-24T13:41:46.888Z,4.10
2022-09-24T13:44:42.380Z,2.92
2022-09-24T13:47:27.549Z,5.93
2022-09-24T13:49:51.626Z,3.03
2022-09-24T13:52:35.577Z,3.33
2022-09-24T13:55:00.769Z,5.22
2022-09-24T13:57:22.300Z,2.75
2022-09-24T13:59:43.711Z,2.75
2022-09-24T14:02:32.660Z,3.35
2022-09-24T14:04:58.192Z,2.60
2022-09-24T14:07:21.292Z,4.75
2022-09-24T14:09:44.420Z,3.03
2022-09-24T14:12:22.462Z,2.67
2022-09-24T14:14:47.334Z,3.28
2022-09-24T14:17:12.951Z,2.25
2022-09-24T14:19:34.675Z,2.42
2022-09-24T14:21:58.597Z,2.72
2022-09-24T14:24:36.986Z,3.20
2022-09-24T14:27:07.164Z,2.33
2022-09-24T14:29:43.932Z,2.28
2022-09-24T14:32:22.957Z,3.83
2022-09-24T14:34:44.436Z,53.72
2022-09-24T14:37:23.206Z,46.58
2022-09-24T14:39:48.223Z,24.58
2022-09-24T14:42:17.435Z,3.92
2022-09-24T14:44:44.452Z,2.25
2022-09-24T14:47:25.422Z,3.83
2022-09-24T14:49:46.856Z,2.95
2022-09-24T14:52:26.878Z,4.00
2022-09-24T14:54:48.367Z,5.00
2022-09-24T14:57:12.110Z,3.40
2022-09-24T14:59:37.548Z,5.45
2022-09-24T15:02:15.829Z,5.30
2022-09-24T15:04:37.988Z,3.88
2022-09-24T15:06:59.441Z,6.85
2022-09-24T15:09:28.362Z,2.47
2022-09-24T15:11:49.863Z,3.17
2022-09-24T15:14:18.100Z,4.05
2022-09-24T15:16:39.598Z,4.60
2022-09-24T15:19:06.801Z,4.68
2022-09-24T15:21:28.308Z,3.40
2022-09-24T15:23:49.729Z,5.47
2022-09-24T15:26:11.289Z,4.50
2022-09-24T15:28:32.843Z,4.95
2022-09-24T15:30:54.446Z,5.47
2022-09-24T15:33:17.573Z,8.35
2022-09-24T15:35:40.873Z,3.65
2022-09-24T15:38:02.454Z,3.53
2022-09-24T15:40:25.481Z,3.90
2022-09-24T15:42:47.143Z,3.60
2022-09-24T15:45:17.078Z,6.70
2022-09-24T15:47:38.497Z,5.35
2022-09-24T15:49:59.939Z,6.93
2022-09-24T15:52:27.782Z,4.07
2022-09-24T15:54:50.867Z,5.40
2022-09-24T15:57:12.830Z,2.70
2022-09-24T15:59:34.253Z,5.72
2022-09-24T16:02:01.121Z,3.50
2022-09-24T16:04:22.600Z,4.32
2022-09-24T16:06:44.138Z,4.50
2022-09-24T16:09:05.640Z,6.00
2022-09-24T16:11:27.464Z,3.78
2022-09-24T16:13:50.384Z,6.03
2022-09-24T16:16:12.064Z,6.35
2022-09-24T16:18:33.794Z,7.05
2022-09-24T16:20:56.231Z,5.45
2022-09-24T16:23:18.151Z,4.40
2022-09-24T16:25:40.214Z,3.72
2022-09-24T16:28:01.866Z,4.00
2022-09-24T16:30:23.355Z,5.68
2022-09-24T16:32:44.859Z,4.78
2022-09-24T16:35:06.720Z,3.58
2022-09-24T16:37:28.234Z,3.45
2022-09-24T16:39:49.712Z,2.90
2022-09-24T16:42:11.135Z,4.70
2022-09-24T16:44:32.553Z,3.88
2022-09-24T16:46:54.116Z,4.70
2022-09-24T16:49:15.586Z,6.00
2022-09-24T16:51:37.947Z,6.07
2022-09-24T16:53:59.403Z,30.77
2022-09-24T16:56:20.869Z,34.35
2022-09-24T16:58:43.751Z,39.75
2022-09-24T17:01:06.741Z,31.63
2022-09-24T17:03:28.237Z,32.05
2022-09-24T17:05:49.653Z,17.33
2022-09-24T17:08:11.065Z,16.13
2022-09-24T17:10:32.503Z,14.40
2022-09-24T17:12:53.956Z,9.10
2022-09-24T17:15:20.691Z,8.23
2022-09-24T17:17:49.410Z,6.22
2022-09-24T17:20:11.560Z,4.75
2022-09-24T17:22:32.998Z,5.95
2022-09-24T17:24:54.473Z,4.25
2022-09-24T17:27:15.883Z,3.70
2022-09-24T17:29:37.350Z,3.10
2022-09-24T17:31:59.382Z,6.15
2022-09-24T17:34:20.813Z,7.32
2022-09-24T17:36:42.682Z,5.80
2022-09-24T17:39:05.793Z,2.80
2022-09-24T17:41:29.026Z,4.75
2022-09-24T17:43:51.541Z,5.50
2022-09-24T17:46:21.754Z,4.15
2022-09-24T17:48:45.393Z,6.68
2022-09-24T17:51:10.518Z,40.63
2022-09-24T17:53:34.280Z,17.83
2022-09-24T17:55:55.708Z,8.45
2022-09-24T17:58:18.615Z,5.70
2022-09-24T18:00:40.044Z,8.75
2022-09-24T18:03:01.572Z,7.57
2022-09-24T18:05:23.098Z,11.80
2022-09-24T18:07:45.302Z,20.08
2022-09-24T18:10:07.562Z,9.27
2022-09-24T18:12:29.110Z,6.03
2022-09-24T18:14:50.563Z,10.07
2022-09-24T18:17:11.973Z,8.93
2022-09-24T18:19:33.398Z,4.80
2022-09-24T18:21:56.130Z,6.63
2022-09-24T18:24:17.895Z,5.75
2022-09-24T18:26:40.433Z,7.53
2022-09-24T18:29:06.074Z,8.38
2022-09-24T18:31:29.755Z,18.08
2022-09-24T18:33:52.982Z,4.88
2022-09-24T18:36:17.807Z,26.75
2022-09-24T18:38:39.550Z,22.88
2022-09-24T18:41:06.214Z,19.40
2022-09-24T18:43:28.419Z,9.57
2022-09-24T18:45:49.915Z,17.95
2022-09-24T18:48:11.308Z,15.52
2022-09-24T18:50:32.748Z,10.65
2022-09-24T18:52:54.166Z,11.38
2022-09-24T18:55:15.629Z,4.72
2022-09-24T18:57:37.834Z,5.40
2022-09-24T18:59:59.321Z,8.47
2022-09-24T19:02:25.234Z,7.27
2022-09-24T19:04:46.936Z,5.20
2022-09-24T19:07:09.028Z,5.78
2022-09-24T19:09:30.513Z,5.67
2022-09-24T19:11:51.944Z,5.33
2022-09-24T19:14:15.072Z,10.43
2022-09-24T19:16:36.509Z,6.80
2022-09-24T19:18:59.481Z,8.33
2022-09-24T19:21:25.539Z,3.50
2022-09-24T19:23:49.735Z,7.03
2022-09-24T19:26:13.215Z,6.00
2022-09-24T19:28:36.380Z,9.13
2022-09-24T19:30:58.003Z,8.40
2022-09-24T19:33:19.501Z,7.77
2022-09-24T19:35:41.227Z,5.77
2022-09-24T19:38:02.784Z,8.93
2022-09-24T19:40:24.316Z,9.77
2022-09-24T19:42:47.066Z,28.70
2022-09-24T19:45:10.016Z,50.33
2022-09-24T19:47:34.518Z,55.60
2022-09-24T19:49:55.960Z,59.77
2022-09-24T19:52:17.392Z,25.40
2022-09-24T19:54:38.833Z,36.97
2022-09-24T19:57:00.348Z,41.17
2022-09-24T19:59:21.772Z,43.07
2022-09-24T20:01:44.639Z,43.83
2022-09-24T20:04:07.507Z,62.57
2022-09-24T20:06:31.315Z,74.67
2022-09-24T20:08:53.136Z,61.57
2022-09-24T20:11:19.353Z,53.73
2022-09-24T20:13:46.251Z,51.67
2022-09-24T20:16:08.286Z,51.50
2022-09-24T20:18:31.345Z,41.93
2022-09-24T20:20:55.745Z,39.40
2022-09-24T20:23:17.428Z,28.43
2022-09-24T20:25:57.466Z,32.00
2022-09-24T20:28:19.047Z,19.37
2022-09-24T20:30:40.836Z,23.23
2022-09-24T20:33:02.340Z,27.13
2022-09-24T20:35:23.765Z,9.97
2022-09-24T20:37:47.575Z,41.23
2022-09-24T20:40:09.996Z,39.73
2022-09-24T20:42:31.512Z,27.47
2022-09-24T20:44:53.491Z,36.13
2022-09-24T20:47:15.403Z,26.87
2022-09-24T20:49:37.160Z,27.27
2022-09-24T20:51:58.707Z,24.07
2022-09-24T20:54:21.282Z,18.20
2022-09-24T20:56:43.427Z,6.10
2022-09-24T20:59:04.902Z,6.27
2022-09-24T21:01:26.369Z,6.83
2022-09-24T21:03:50.066Z,7.93
2022-09-24T21:06:13.149Z,13.13
2022-09-24T21:08:40.381Z,18.53
2022-09-24T21:11:06.966Z,9.77
2022-09-24T21:13:28.542Z,11.50
2022-09-24T21:16:01.748Z,9.60
2022-09-24T21:18:28.232Z,6.40
2022-09-24T21:20:54.699Z,6.67
2022-09-24T21:23:16.128Z,6.87
2022-09-24T21:25:53.996Z,5.93
2022-09-24T21:28:16.081Z,14.60
2022-09-24T21:30:37.660Z,6.90
2022-09-24T21:32:59.219Z,8.03
2022-09-24T21:35:20.838Z,6.40
2022-09-24T21:37:42.306Z,8.03
2022-09-24T21:40:03.915Z,13.07
2022-09-24T21:42:26.937Z,11.67
2022-09-24T21:44:48.358Z,11.43
2022-09-24T21:47:09.798Z,15.47
2022-09-24T21:49:33.570Z,13.90
2022-09-24T21:51:56.942Z,12.80
2022-09-24T21:54:18.533Z,15.43
2022-09-24T21:56:40.024Z,15.23
2022-09-24T21:59:22.413Z,13.40
2022-09-24T22:01:44.035Z,13.33
2022-09-24T22:04:08.324Z,21.33
2022-09-24T22:06:31.408Z,18.67
2022-09-24T22:08:56.088Z,10.17
2022-09-24T22:11:17.993Z,9.43
2022-09-24T22:13:40.319Z,9.43
2022-09-24T22:16:01.939Z,11.20
2022-09-24T22:18:24.274Z,13.87
2022-09-24T22:20:45.721Z,16.13
2022-09-24T22:23:07.126Z,13.70
2022-09-24T22:25:28.550Z,17.87
2022-09-24T22:27:49.955Z,12.87
2022-09-24T22:30:11.778Z,10.47
2022-09-24T22:32:33.239Z,11.23
2022-09-24T22:35:13.225Z,8.40
2022-09-24T22:37:34.694Z,8.77
2022-09-24T22:39:56.218Z,11.03
2022-09-24T22:42:17.640Z,10.53
2022-09-24T22:44:39.045Z,15.50
2022-09-24T22:47:00.493Z,18.17
2022-09-24T22:49:23.301Z,13.93
2022-09-24T22:51:44.757Z,13.80
2022-09-24T22:54:07.286Z,10.00
2022-09-24T22:56:30.046Z,14.43
2022-09-24T22:58:56.312Z,10.90
2022-09-24T23:01:23.558Z,9.67
2022-09-24T23:03:45.455Z,14.87
2022-09-24T23:06:08.229Z,13.33
2022-09-24T23:08:33.326Z,19.40
2022-09-24T23:10:54.867Z,16.93
2022-09-24T23:13:16.262Z,17.73
2022-09-24T23:15:37.711Z,11.97
2022-09-24T23:17:59.109Z,12.73
2022-09-24T23:20:21.964Z,12.27
2022-09-24T23:22:43.386Z,10.77
2022-09-24T23:25:05.215Z,12.43
2022-09-24T23:27:27.009Z,16.20
2022-09-24T23:29:49.118Z,9.67
2022-09-24T23:32:11.882Z,10.87
2022-09-24T23:34:33.328Z,10.07
2022-09-24T23:36:54.740Z,12.23
2022-09-24T23:39:16.199Z,8.30
2022-09-24T23:41:37.756Z,10.33
2022-09-24T23:44:00.128Z,7.60
2022-09-24T23:46:21.723Z,7.97
2022-09-24T23:48:43.265Z,7.37
2022-09-24T23:51:05.804Z,10.63
2022-09-24T23:53:27.711Z,9.30
2022-09-24T23:55:49.715Z,8.77
2022-09-24T23:58:11.133Z,10.60
